createdAt,value
2023-02-19T00:01:34.141Z,27.98
2023-02-19T00:04:07.150Z,26.83
2023-02-19T00:06:35.850Z,25.13
2023-02-19T00:09:03.819Z,27.55
2023-02-19T00:11:32.978Z,25.35
2023-02-19T00:14:01.400Z,24.42
2023-02-19T00:16:34.147Z,24.02
2023-02-19T00:19:03.075Z,24.33
2023-02-19T00:21:30.216Z,23.52
2023-02-19T00:24:00.111Z,23.45
2023-02-19T00:26:27.557Z,24.48
2023-02-19T00:28:55.880Z,23.73
2023-02-19T00:31:28.690Z,24.15
2023-02-19T00:33:58.745Z,23.60
2023-02-19T00:36:27.760Z,23.20
2023-02-19T00:38:54.849Z,24.30
2023-02-19T00:41:22.839Z,22.98
2023-02-19T00:43:55.859Z,22.88
2023-02-19T00:46:27.186Z,22.23
2023-02-19T00:48:54.882Z,25.15
2023-02-19T00:51:26.654Z,25.90
2023-02-19T00:53:53.993Z,24.77
2023-02-19T00:56:20.899Z,26.25
2023-02-19T00:58:48.468Z,25.52
2023-02-19T01:01:16.219Z,26.80
2023-02-19T01:03:44.669Z,25.52
2023-02-19T01:06:14.916Z,26.05
2023-02-19T01:08:41.971Z,27.25
2023-02-19T01:11:10.582Z,27.65
2023-02-19T01:13:37.977Z,29.17
2023-02-19T01:16:07.795Z,27.05
2023-02-19T01:18:35.535Z,27.75
2023-02-19T01:21:07.670Z,28.08
2023-02-19T01:23:35.313Z,29.40
2023-02-19T01:26:06.263Z,28.48
2023-02-19T01:28:33.676Z,28.98
2023-02-19T01:31:05.715Z,28.17
2023-02-19T01:33:33.395Z,28.70
2023-02-19T01:36:02.629Z,28.63
2023-02-19T01:38:29.455Z,28.27
2023-02-19T01:40:57.733Z,27.30
2023-02-19T01:43:24.801Z,26.80
2023-02-19T01:45:51.994Z,25.63
2023-02-19T01:48:24.740Z,27.00
2023-02-19T01:51:05.241Z,28.13
2023-02-19T01:53:36.992Z,27.15
2023-02-19T01:56:05.068Z,26.50
2023-02-19T01:58:34.983Z,27.25
2023-02-19T02:01:05.363Z,25.23
2023-02-19T02:03:33.096Z,24.83
2023-02-19T02:06:05.512Z,26.20
2023-02-19T02:08:52.255Z,21.70
2023-02-19T02:11:20.715Z,21.23
2023-02-19T02:13:48.506Z,21.48
2023-02-19T02:16:20.367Z,20.48
2023-02-19T02:18:52.214Z,20.63
2023-02-19T02:21:35.366Z,19.42
2023-02-19T02:24:18.428Z,17.85
2023-02-19T02:27:07.030Z,16.63
2023-02-19T02:30:11.521Z,15.48
2023-02-19T02:33:01.644Z,15.75
2023-02-19T02:35:37.227Z,14.90
2023-02-19T02:38:09.157Z,14.45
2023-02-19T02:40:37.371Z,14.13
2023-02-19T02:43:04.198Z,12.85
2023-02-19T02:45:35.429Z,14.85
2023-02-19T02:48:11.362Z,13.30
2023-02-19T02:50:44.139Z,13.23
2023-02-19T02:53:51.321Z,12.48
2023-02-19T02:56:19.556Z,12.05
2023-02-19T02:58:48.585Z,12.88
2023-02-19T03:01:46.503Z,11.10
2023-02-19T03:04:21.583Z,11.85
2023-02-19T03:06:50.778Z,11.20
2023-02-19T03:09:30.237Z,11.70
2023-02-19T03:12:20.198Z,10.98
2023-02-19T03:15:09.349Z,10.18
2023-02-19T03:18:01.479Z,10.23
2023-02-19T03:20:30.068Z,10.32
2023-02-19T03:23:01.066Z,10.77
2023-02-19T03:25:50.678Z,9.95
2023-02-19T03:28:41.030Z,9.50
2023-02-19T03:31:12.456Z,10.60
2023-02-19T03:33:41.742Z,9.95
2023-02-19T03:36:12.721Z,10.60
2023-02-19T03:38:44.547Z,10.70
2023-02-19T03:41:17.730Z,10.15
2023-02-19T03:46:40.441Z,10.65
2023-02-19T03:49:29.894Z,10.43
2023-02-19T03:52:13.794Z,11.40
2023-02-19T03:54:56.098Z,6.78
2023-02-19T03:57:49.616Z,4.30
2023-02-19T04:00:22.649Z,2.60
2023-02-19T04:03:02.878Z,2.42
2023-02-19T04:05:33.207Z,2.47
2023-02-19T04:08:09.076Z,2.25
2023-02-19T04:10:38.192Z,2.28
2023-02-19T04:13:12.914Z,2.10
2023-02-19T04:15:42.895Z,2.30
2023-02-19T04:18:18.641Z,2.58
2023-02-19T04:20:47.607Z,2.40
2023-02-19T04:23:18.618Z,2.78
2023-02-19T04:25:48.578Z,2.47
2023-02-19T04:28:17.178Z,2.58
2023-02-19T04:30:44.223Z,2.47
2023-02-19T04:33:11.228Z,2.33
2023-02-19T04:35:38.089Z,2.70
2023-02-19T04:38:04.960Z,2.70
2023-02-19T04:40:31.762Z,2.28
2023-02-19T04:42:58.641Z,2.20
2023-02-19T04:45:25.559Z,2.40
2023-02-19T04:47:52.352Z,2.65
2023-02-19T04:50:19.209Z,2.10
2023-02-19T04:52:46.020Z,2.45
2023-02-19T04:55:12.799Z,2.30
2023-02-19T04:57:39.629Z,2.85
2023-02-19T05:00:08.135Z,2.60
2023-02-19T05:02:35.106Z,2.80
2023-02-19T05:05:02.009Z,3.25
2023-02-19T05:07:28.906Z,2.97
2023-02-19T05:09:55.721Z,3.22
2023-02-19T05:12:22.521Z,3.13
2023-02-19T05:14:49.420Z,3.67
2023-02-19T05:17:16.263Z,2.95
2023-02-19T05:19:43.100Z,2.53
2023-02-19T05:22:10.019Z,2.63
2023-02-19T05:24:36.855Z,2.92
2023-02-19T05:27:03.726Z,2.40
2023-02-19T05:29:31.673Z,2.53
2023-02-19T05:31:58.788Z,2.20
2023-02-19T05:34:25.712Z,2.33
2023-02-19T05:36:52.576Z,2.53
2023-02-19T05:39:19.435Z,2.72
2023-02-19T05:41:46.302Z,3.25
2023-02-19T05:44:13.100Z,3.42
2023-02-19T05:46:40.252Z,4.35
2023-02-19T05:49:07.146Z,4.65
2023-02-19T05:51:34.076Z,4.35
2023-02-19T05:54:00.887Z,4.75
2023-02-19T05:56:31.401Z,5.18
2023-02-19T05:58:59.293Z,5.07
2023-02-19T06:01:27.774Z,4.65
2023-02-19T06:03:57.353Z,3.72
2023-02-19T06:06:25.457Z,3.15
2023-02-19T06:08:52.994Z,4.00
2023-02-19T06:11:20.302Z,3.45
2023-02-19T06:13:47.509Z,3.80
2023-02-19T06:16:14.415Z,3.28
2023-02-19T06:18:41.338Z,2.40
2023-02-19T06:21:10.820Z,2.55
2023-02-19T06:23:38.713Z,1.90
2023-02-19T06:26:09.742Z,1.92
2023-02-19T06:28:37.243Z,2.50
2023-02-19T06:31:05.203Z,2.25
2023-02-19T06:33:32.795Z,1.95
2023-02-19T06:36:02.181Z,2.35
2023-02-19T06:38:29.926Z,2.40
2023-02-19T06:41:01.592Z,2.63
2023-02-19T06:43:28.760Z,2.42
2023-02-19T06:45:58.905Z,2.58
2023-02-19T06:48:27.257Z,2.50
2023-02-19T06:50:54.420Z,2.63
2023-02-19T06:53:21.732Z,2.60
2023-02-19T06:55:57.755Z,2.90
2023-02-19T06:58:25.877Z,3.10
2023-02-19T07:00:53.788Z,2.70
2023-02-19T07:03:23.884Z,2.90
2023-02-19T07:05:50.752Z,3.10
2023-02-19T07:08:18.078Z,2.55
2023-02-19T07:10:45.723Z,2.60
2023-02-19T07:13:12.658Z,3.47
2023-02-19T07:15:39.528Z,3.58
2023-02-19T07:18:10.379Z,3.60
2023-02-19T07:20:37.697Z,3.90
2023-02-19T07:23:04.700Z,4.05
2023-02-19T07:25:31.797Z,4.13
2023-02-19T07:27:58.662Z,4.65
2023-02-19T07:30:25.637Z,4.85
2023-02-19T07:32:52.459Z,5.22
2023-02-19T07:35:19.281Z,4.97
2023-02-19T07:37:46.055Z,4.10
2023-02-19T07:40:12.873Z,5.47
2023-02-19T07:42:39.822Z,5.90
2023-02-19T07:45:07.034Z,4.80
2023-02-19T07:47:33.855Z,5.45
2023-02-19T07:50:00.710Z,5.03
2023-02-19T07:52:28.309Z,4.78
2023-02-19T07:54:55.316Z,5.00
2023-02-19T07:57:22.178Z,5.13
2023-02-19T07:59:49.203Z,5.55
2023-02-19T08:02:37.157Z,5.55
2023-02-19T08:05:04.849Z,6.57
2023-02-19T08:07:36.003Z,5.38
2023-02-19T08:10:23.281Z,5.97
2023-02-19T08:13:35.585Z,5.97
2023-02-19T08:16:16.091Z,4.70
2023-02-19T08:18:44.608Z,4.50
2023-02-19T08:21:11.814Z,4.57
2023-02-19T08:23:38.904Z,4.90
2023-02-19T08:26:06.623Z,4.30
2023-02-19T08:28:33.708Z,4.50
2023-02-19T08:31:03.423Z,4.47
2023-02-19T08:33:30.994Z,3.95
2023-02-19T08:36:01.663Z,4.18
2023-02-19T08:38:28.532Z,4.43
2023-02-19T08:40:55.383Z,4.43
2023-02-19T08:43:22.205Z,4.63
2023-02-19T08:45:49.124Z,4.00
2023-02-19T08:48:16.021Z,4.38
2023-02-19T08:50:44.360Z,5.80
2023-02-19T08:53:11.137Z,3.67
2023-02-19T08:55:38.986Z,4.30
2023-02-19T08:58:05.977Z,4.10
2023-02-19T09:00:32.907Z,3.90
2023-02-19T09:02:59.886Z,3.88
2023-02-19T09:05:26.764Z,3.47
2023-02-19T09:07:53.660Z,3.60
2023-02-19T09:10:20.543Z,3.30
2023-02-19T09:12:47.451Z,4.03
2023-02-19T09:15:14.381Z,3.55
2023-02-19T09:17:41.302Z,3.83
2023-02-19T09:20:09.670Z,3.22
2023-02-19T09:22:36.676Z,3.55
2023-02-19T09:25:03.636Z,3.40
2023-02-19T09:27:32.282Z,7.78
2023-02-19T09:29:59.304Z,4.32
2023-02-19T09:32:26.223Z,4.15
2023-02-19T09:34:53.098Z,4.15
2023-02-19T09:37:19.913Z,3.35
2023-02-19T09:39:46.803Z,3.30
2023-02-19T09:42:24.502Z,3.20
2023-02-19T09:44:54.329Z,2.50
2023-02-19T09:47:25.073Z,2.30
2023-02-19T09:49:56.304Z,1.95
2023-02-19T09:52:32.748Z,2.13
2023-02-19T09:55:04.025Z,1.90
2023-02-19T09:57:34.757Z,1.77
2023-02-19T10:00:18.345Z,1.90
2023-02-19T10:02:45.268Z,2.00
2023-02-19T10:05:17.043Z,2.13
2023-02-19T10:07:47.788Z,1.90
2023-02-19T10:10:14.533Z,2.33
2023-02-19T10:12:53.852Z,2.08
2023-02-19T10:15:32.238Z,2.08
2023-02-19T10:17:59.514Z,1.92
2023-02-19T10:20:28.019Z,1.55
2023-02-19T10:23:05.166Z,1.90
2023-02-19T10:25:34.254Z,2.20
2023-02-19T10:28:02.619Z,1.98
2023-02-19T10:30:35.793Z,1.92
2023-02-19T10:36:05.266Z,2.00
2023-02-19T10:38:39.180Z,2.17
2023-02-19T10:41:21.079Z,1.80
2023-02-19T10:44:06.621Z,1.83
2023-02-19T10:46:37.417Z,1.65
2023-02-19T10:49:13.945Z,1.58
2023-02-19T10:51:41.811Z,1.65
2023-02-19T10:54:28.557Z,1.80
2023-02-19T10:56:57.175Z,1.48
2023-02-19T10:59:30.336Z,1.63
2023-02-19T11:04:34.239Z,1.52
2023-02-19T11:07:14.805Z,1.30
2023-02-19T11:09:45.708Z,1.58
2023-02-19T11:12:25.269Z,1.02
2023-02-19T11:14:52.595Z,0.90
2023-02-19T11:17:30.602Z,0.73
2023-02-19T11:20:14.568Z,0.90
2023-02-19T11:22:47.008Z,0.90
2023-02-19T11:25:14.564Z,0.98
2023-02-19T11:28:07.943Z,1.00
2023-02-19T11:30:41.068Z,1.00
2023-02-19T11:33:17.216Z,5.40
2023-02-19T11:35:45.115Z,5.60
2023-02-19T11:38:14.793Z,3.05
2023-02-19T11:40:53.857Z,1.30
2023-02-19T11:43:49.847Z,1.17
2023-02-19T11:46:42.864Z,1.25
2023-02-19T11:49:19.715Z,0.90
2023-02-19T11:52:21.010Z,0.80
2023-02-19T11:55:34.080Z,0.77
2023-02-19T11:58:37.085Z,0.60
2023-02-19T12:01:24.426Z,0.60
2023-02-19T12:04:28.726Z,0.68
2023-02-19T12:07:16.950Z,1.08
2023-02-19T12:10:28.271Z,0.80
2023-02-19T12:12:58.013Z,0.60
2023-02-19T12:15:43.569Z,1.17
2023-02-19T12:18:28.256Z,0.65
2023-02-19T12:21:04.205Z,0.85
2023-02-19T12:23:46.448Z,0.32
2023-02-19T12:26:30.266Z,0.68
2023-02-19T12:29:15.996Z,1.30
2023-02-19T12:32:08.901Z,1.30
2023-02-19T12:35:00.403Z,0.90
2023-02-19T12:38:03.496Z,0.60
2023-02-19T12:40:57.994Z,0.47
2023-02-19T12:43:25.159Z,0.40
2023-02-19T12:46:04.503Z,0.75
2023-02-19T12:48:39.893Z,0.70
2023-02-19T12:51:22.866Z,0.55
2023-02-19T12:54:02.328Z,0.52
2023-02-19T12:56:42.190Z,0.60
2023-02-19T12:59:27.587Z,0.75
2023-02-19T13:02:19.587Z,0.70
2023-02-19T13:05:11.963Z,0.63
2023-02-19T13:07:44.486Z,0.63
2023-02-19T13:10:11.318Z,0.90
2023-02-19T13:12:45.272Z,0.70
2023-02-19T13:15:25.108Z,0.60
2023-02-19T13:17:56.051Z,1.67
2023-02-19T13:20:37.701Z,1.02
2023-02-19T13:23:46.382Z,0.95
2023-02-19T13:26:43.652Z,0.82
2023-02-19T13:29:29.412Z,0.63
2023-02-19T13:32:02.658Z,0.60
2023-02-19T13:34:57.462Z,6.95
2023-02-19T13:37:24.854Z,8.30
2023-02-19T13:39:53.799Z,5.82
2023-02-19T13:42:32.949Z,1.20
2023-02-19T13:45:01.900Z,1.17
2023-02-19T13:48:07.782Z,0.70
2023-02-19T13:50:34.990Z,1.15
2023-02-19T13:53:22.396Z,0.70
2023-02-19T13:55:52.724Z,1.70
2023-02-19T13:58:52.922Z,0.70
2023-02-19T14:01:20.441Z,0.70
2023-02-19T14:04:17.164Z,0.73
2023-02-19T14:07:03.176Z,0.55
2023-02-19T14:09:43.933Z,0.60
2023-02-19T14:12:10.860Z,0.70
2023-02-19T14:14:53.684Z,0.60
2023-02-19T14:17:39.833Z,0.82
2023-02-19T14:20:09.769Z,0.70
2023-02-19T14:22:57.630Z,0.50
2023-02-19T14:25:30.144Z,0.90
2023-02-19T14:28:11.606Z,0.80
2023-02-19T14:31:04.528Z,0.50
2023-02-19T14:33:42.830Z,0.70
2023-02-19T14:36:54.680Z,1.30
2023-02-19T14:39:37.694Z,0.80
2023-02-19T14:42:16.860Z,1.10
2023-02-19T14:45:06.380Z,0.80
2023-02-19T14:47:35.085Z,0.98
2023-02-19T14:50:03.768Z,0.90
2023-02-19T14:52:40.951Z,1.02
2023-02-19T14:55:09.930Z,0.73
2023-02-19T14:57:40.279Z,0.80
2023-02-19T15:00:22.749Z,0.82
2023-02-19T15:02:57.785Z,0.82
2023-02-19T15:05:30.927Z,0.88
2023-02-19T15:08:11.493Z,0.55
2023-02-19T15:10:39.401Z,0.85
2023-02-19T15:13:08.587Z,0.80
2023-02-19T15:15:45.593Z,0.65
2023-02-19T15:18:20.073Z,0.70
2023-02-19T15:20:47.757Z,0.50
2023-02-19T15:23:23.024Z,0.90
2023-02-19T15:25:50.613Z,0.77
2023-02-19T15:28:26.804Z,0.60
2023-02-19T15:30:59.673Z,0.70
2023-02-19T15:33:28.133Z,0.50
2023-02-19T15:35:57.980Z,0.90
2023-02-19T15:38:25.607Z,0.77
2023-02-19T15:40:53.541Z,0.50
2023-02-19T15:43:23.942Z,0.38
2023-02-19T15:45:54.417Z,0.80
2023-02-19T15:48:30.666Z,0.82
2023-02-19T15:51:09.329Z,0.30
2023-02-19T15:53:47.391Z,0.50
2023-02-19T15:56:28.197Z,0.70
2023-02-19T15:58:55.199Z,0.60
2023-02-19T16:01:35.355Z,0.80
2023-02-19T16:04:03.208Z,0.52
2023-02-19T16:06:30.596Z,0.60
2023-02-19T16:09:04.109Z,0.50
2023-02-19T16:11:47.549Z,0.63
2023-02-19T16:17:10.206Z,0.80
2023-02-19T16:19:45.687Z,0.75
2023-02-19T16:22:16.109Z,1.02
2023-02-19T16:24:49.292Z,0.77
2023-02-19T16:30:17.068Z,1.23
2023-02-19T16:32:46.900Z,1.13
2023-02-19T16:35:42.364Z,0.80
2023-02-19T16:38:17.221Z,0.90
2023-02-19T16:40:54.223Z,1.00
2023-02-19T16:43:44.457Z,1.30
2023-02-19T16:46:13.139Z,0.95
2023-02-19T16:48:40.095Z,1.92
2023-02-19T16:51:08.467Z,0.90
2023-02-19T16:53:35.631Z,0.82
2023-02-19T16:56:02.708Z,1.02
2023-02-19T16:58:29.642Z,0.88
2023-02-19T17:00:57.413Z,1.63
2023-02-19T17:03:25.814Z,0.70
2023-02-19T17:05:53.445Z,1.00
2023-02-19T17:08:39.251Z,1.17
2023-02-19T17:11:11.176Z,1.35
2023-02-19T17:13:38.462Z,1.10
2023-02-19T17:16:05.641Z,1.83
2023-02-19T17:18:32.661Z,1.58
2023-02-19T17:21:12.303Z,0.95
2023-02-19T17:23:42.519Z,2.13
2023-02-19T17:26:18.401Z,1.63
2023-02-19T17:28:45.705Z,1.30
2023-02-19T17:31:14.514Z,1.23
2023-02-19T17:33:42.833Z,2.15
2023-02-19T17:36:21.535Z,1.45
2023-02-19T17:38:48.484Z,1.30
2023-02-19T17:41:15.480Z,1.30
2023-02-19T17:43:42.381Z,1.60
2023-02-19T17:46:16.162Z,1.30
2023-02-19T17:48:44.726Z,1.88
2023-02-19T17:51:12.141Z,1.58
2023-02-19T17:53:39.461Z,1.55
2023-02-19T17:56:06.700Z,1.42
2023-02-19T17:58:33.739Z,1.35
2023-02-19T18:01:00.726Z,1.40
2023-02-19T18:03:27.662Z,1.80
2023-02-19T18:05:54.633Z,1.83
2023-02-19T18:08:21.542Z,1.35
2023-02-19T18:10:48.416Z,1.83
2023-02-19T18:13:15.585Z,1.80
2023-02-19T18:15:45.064Z,1.75
2023-02-19T18:18:12.306Z,1.65
2023-02-19T18:20:39.142Z,2.30
2023-02-19T18:23:05.973Z,1.88
2023-02-19T18:25:33.022Z,1.70
2023-02-19T18:28:00.185Z,1.33
2023-02-19T18:30:28.595Z,1.83
2023-02-19T18:32:55.646Z,1.70
2023-02-19T18:35:22.625Z,2.20
2023-02-19T18:37:54.154Z,1.70
2023-02-19T18:40:22.332Z,1.60
2023-02-19T18:42:49.249Z,1.63
2023-02-19T18:45:16.201Z,1.92
2023-02-19T18:47:45.765Z,1.35
2023-02-19T18:50:13.190Z,1.92
2023-02-19T18:52:40.113Z,1.77
2023-02-19T18:55:07.567Z,1.88
2023-02-19T18:57:34.493Z,1.95
2023-02-19T19:00:01.453Z,1.50
2023-02-19T19:02:33.741Z,2.17
2023-02-19T19:05:06.912Z,1.90
2023-02-19T19:07:33.735Z,2.33
2023-02-19T19:10:00.820Z,2.42
2023-02-19T19:12:28.150Z,2.28
2023-02-19T19:14:55.275Z,2.65
2023-02-19T19:17:22.426Z,1.95
2023-02-19T19:19:49.543Z,1.52
2023-02-19T19:22:16.716Z,1.60
2023-02-19T19:24:43.607Z,2.70
2023-02-19T19:27:10.764Z,2.10
2023-02-19T19:29:37.938Z,1.40
2023-02-19T19:32:08.202Z,1.67
2023-02-19T19:34:35.573Z,2.03
2023-02-19T19:37:02.462Z,1.40
2023-02-19T19:39:29.351Z,1.70
2023-02-19T19:41:57.002Z,1.48
2023-02-19T19:44:24.356Z,1.60
2023-02-19T19:46:51.365Z,2.17
2023-02-19T19:49:22.728Z,2.05
2023-02-19T19:51:49.939Z,2.05
2023-02-19T19:54:16.908Z,2.15
2023-02-19T19:56:47.391Z,2.30
2023-02-19T19:59:16.608Z,1.70
2023-02-19T20:01:54.609Z,3.83
2023-02-19T20:04:24.133Z,2.45
2023-02-19T20:06:51.324Z,2.60
2023-02-19T20:09:19.067Z,2.60
2023-02-19T20:11:51.429Z,2.10
2023-02-19T20:14:20.127Z,2.30
2023-02-19T20:16:49.947Z,2.30
2023-02-19T20:19:18.423Z,2.65
2023-02-19T20:21:49.932Z,3.03
2023-02-19T20:24:19.794Z,2.25
2023-02-19T20:26:46.879Z,2.70
2023-02-19T20:29:13.835Z,2.72
2023-02-19T20:31:47.276Z,2.47
2023-02-19T20:34:14.361Z,3.50
2023-02-19T20:36:45.908Z,2.70
2023-02-19T20:39:12.856Z,2.35
2023-02-19T20:41:40.090Z,2.50
2023-02-19T20:44:07.012Z,2.13
2023-02-19T20:46:33.878Z,2.20
2023-02-19T20:49:00.944Z,2.53
2023-02-19T20:51:27.821Z,2.10
2023-02-19T20:53:54.680Z,2.20
2023-02-19T20:56:21.596Z,2.58
2023-02-19T20:58:48.587Z,2.30
2023-02-19T21:01:15.558Z,2.15
2023-02-19T21:03:42.532Z,2.03
2023-02-19T21:06:09.720Z,2.10
2023-02-19T21:08:36.862Z,2.28
2023-02-19T21:11:03.756Z,1.60
2023-02-19T21:13:30.578Z,2.10
2023-02-19T21:15:57.508Z,2.72
2023-02-19T21:18:24.352Z,2.15
2023-02-19T21:20:51.228Z,2.35
2023-02-19T21:23:18.195Z,2.15
2023-02-19T21:25:45.157Z,2.33
2023-02-19T21:28:12.497Z,2.38
2023-02-19T21:30:39.830Z,2.22
2023-02-19T21:33:06.863Z,2.78
2023-02-19T21:35:33.771Z,2.30
2023-02-19T21:38:00.723Z,2.35
2023-02-19T21:40:29.860Z,2.38
2023-02-19T23:10:11.780Z,2.58
2023-02-19T23:12:39.401Z,3.00
2023-02-19T23:15:07.451Z,2.92
2023-02-19T23:17:34.344Z,1.90
2023-02-19T23:20:01.584Z,2.75
2023-02-19T23:22:28.697Z,2.70
2023-02-19T23:24:55.549Z,2.50
2023-02-19T23:27:24.194Z,2.25
2023-02-19T23:29:51.017Z,2.50
2023-02-19T23:32:20.971Z,2.88
2023-02-19T23:34:48.411Z,3.22
2023-02-19T23:37:15.886Z,2.67
2023-02-19T23:39:42.696Z,2.88
2023-02-19T23:42:18.259Z,2.80
2023-02-19T23:44:48.782Z,3.50
2023-02-19T23:47:15.640Z,3.08
2023-02-19T23:49:42.517Z,3.80
2023-02-19T23:52:09.557Z,3.72
2023-02-19T23:54:36.404Z,4.38
2023-02-19T23:57:03.352Z,4.25
2023-02-19T23:59:30.231Z,4.43
